SOD U12-ZONE 1B - SL
Offical Recreational - Results

SOD U12-ZONE 1B

Jury
TD BARTHOLOMEW C. CAN
Referee WEAMES G. CAN
Chief of Race DRYDEN J. CAN
Other Workers
Start Ref BARTHOLOMEW C. CAN
Finish Ref BARTHOLOMEW C. CAN
Race Admin WEEL M. CAN
Chief of Timing CHILTON M. CAN
Technical Data
Course Name
Start 507
Finish 365
Vertical Drop
Length
Homologation N/A
1st Run 2nd run
Course Setter DUVALL K. CAN MONETTE J. CAN
Number of Gates 33/34 34/35
Homologation N/A N/A
Forerunner 1 MATTHEWS C. DEVGL MATTHEWS C. DEVGL
Forerunner 2 STEINBERG A. DEVGL STEINBERG A. DEVGL
Forerunner 3 SEVILLE S. DEVGL SEVILLE S. DEVGL
Forerunner 4 JONASSON S. DEVGL JONASSON S. DEVGL

Weather: LIGHT SNOW

Snow:GROOMED

Temperature Start: -3 Temperature Finish: -3

Rank Card Bib Name Club YOB Category 1st Run 2nd run Total Time
1 85457 36 CLARK Elli TSCBM 05 U14 35.54 33.51 1:09.05
2 78427 3 DINARDO Olivia JOZOW 05 U14 35.24 34.16 1:09.40
3 87072 30 HEISZ Jamie MSFLD 05 U14 36.68 35.49 1:12.17
4 86218 62 SMITH Abigail BEAVR 05 U14 36.97 37.52 1:14.49
5 74790 59 DIMKINA Kalina ALPIN 05 U14 38.33 37.10 1:15.43
6 85738 7 WEAMES Camryn MSFLD 05 U14 38.29 37.35 1:15.64
7 78172 31 DREGER Lulu TSCBM 05 U14 38.60 37.27 1:15.87
8 78803 33 PIRIE Brooke TSCBM 05 U14 39.66 37.09 1:16.75
9 78818 1 RORABECK Sophie BEAVR 05 U14 39.13 38.90 1:18.03
10 86246 10 BELLAMY Fiona DEVGL 06 U12 39.93 39.29 1:19.22
11 80746 53 JEDRZEJEWSKI Julianne DEVGL 06 U12 39.81 39.57 1:19.38
12 76743 61 KALINS Nora TSCBM 05 U14 41.12 38.55 1:19.67
13 79132 25 HARRIS Meghan BEAVR 05 U14 40.04 39.65 1:19.69
14 78535 38 PRIBOJ Emerson JOZOW 05 U14 40.74 39.53 1:20.27
15 88570 28 HUNTER Brooklyn TSCBM 06 U12 41.08 39.63 1:20.71
16 85578 5 BARTLETT Addison BEAVR 06 U12 41.05 39.76 1:20.81
17 78617 23 WAYLAND Ashley JOZOW 06 U12 40.75 40.37 1:21.12
18 85840 42 RODRIGUES Isabelle DEVGL 06 U12 40.70 40.44 1:21.14
19 78353 16 ACTON Bridget JOZOW 06 U12 41.04 40.21 1:21.25
20 86273 29 MCCANNELL Jamie TSCBM 05 U14 41.91 39.62 1:21.53
21 86268 34 CAMPBELL Holly DEVGL 06 U12 41.44 40.15 1:21.59
22 85304 56 LECKER Eliza DEVGL 06 U12 41.89 40.32 1:22.21
23 82248 32 OLIVER Arwen BEAVR 06 U12 41.99 40.49 1:22.48
24 72087 17 RIDE Madison DEVGL 05 U14 39.69 42.89 1:22.58
25 85967 45 PRICE Marley BEAVR 05 U14 42.00 40.78 1:22.78
26 89525 52 LANGFORD Genevieve JOZOW 06 U12 42.72 40.27 1:22.99
27 80694 66 KORNBERG Talia DEVGL 05 U14 42.85 40.37 1:23.22
28 82095 24 MACKAY Charlotte JOZOW 05 U14 42.39 41.21 1:23.60
29 88365 47 LIST Kate CALDN 05 U14 42.61 41.24 1:23.85
30 80631 51 HYMUS Tara BEAVR 05 U14 42.78 41.14 1:23.92
31 78516 55 MURDOCH Antonia JOZOW 05 U14 43.17 41.01 1:24.18
32 78387 12 BULAU Zofia (Zoe) JOZOW 05 U14 41.14 43.76 1:24.90
33 86677 60 REID Ivy TSCBM 06 U12 43.38 41.90 1:25.28
34 87529 20 VOLPE Mia MSFLD 05 U14 43.71 42.63 1:26.34
35 85968 46 CHAPMAN Chloe BEAVR 05 U14 43.89 42.85 1:26.74
36 78697 44 DALRYMPLE Jenna BEAVR 05 U14 43.66 43.63 1:27.29
37 87874 37 KOREEN Tessa CALDN 05 U14 44.04 43.51 1:27.55
38 88416 4 LAWSON Alexandria MSFLD 05 U14 44.11 43.72 1:27.83
39 85799 57 CONLIFFE Alexandra TSCBM 06 U12 44.91 43.14 1:28.05
40 91013 13 PROCTOR Jordan CALDN 06 U12 44.48 43.98 1:28.46
41 84815 50 CARTER Juliana TSCBM 06 U12 45.63 43.69 1:29.32
42 85752 65 MARSHALL Abigail DEVGL 06 U12 45.43 44.67 1:30.10
43 88241 67 STOPPENBRINK Katie MSFLD 05 U14 46.44 43.78 1:30.22
44 88572 48 MCPHAIL Brooke TSCBM 06 U12 46.64 44.20 1:30.84
45 85584 19 MACLACHLAN Molly DEVGL 06 U12 46.36 45.76 1:32.12
46 87071 6 BECHARD Taylor MSFLD 05 U14 46.36 46.70 1:33.06
47 88376 64 DENNIS Kate MSFLD 05 U14 47.89 45.39 1:33.28
48 88417 27 MCINTYRE SALINAS Suri?E CALDN 05 U14 44.51 49.62 1:34.13
49 85570 14 MACLAREN Cameron TSCBM 06 U12 49.43 48.51 1:37.94
50 88380 15 WILKINS Rory MSFLD 05 U14 50.02 49.41 1:39.43
51 85577 40 HORAN Tori TSCBM 06 U12 50.10 50.42 1:40.52
52 91595 2 JOYAL Peyton DEVGL 06 U12 50.25 53.15 1:43.40
53 88377 8 MCGEE Sophia MSFLD 05 U14 51.87 51.60 1:43.47
54 88568 26 GRUNDON Sedona TSCBM 06 U12 53.64 52.35 1:45.99
55 85886 22 SORO Robyn TSCBM 05 U14 53.03 53.74 1:46.77
56 88062 18 MAZZUCA Danielle MSFLD 05 U14 55.34 52.74 1:48.08
999 87074 11 MUNRO Carly MSFLD 05 U14 DNS DNS
999 78580 21 STEINER Maia JOZOW 06 U12 DNS DNS
999 85957 54 PHILLIPS Rachael TSCBM 06 U12 DNS DNS
999 82195 63 CHAN Abby DEVGL 05 U14 DNS DNS
999 88248 35 WIGGAN Sophie CALDN 05 U14 DNF 044.06
999 78618 41 WAYLAND Lauren JOZOW 05 U14 DNF 035.03
999 84753 39 GINGERICH Robyn TSCBM 06 U12 040.51 DNF
999 85554 9 MURRAY Olivia BEAVR 05 U14 043.59 DSQ - 9
999 87521 43 MCDANIEL Gabriella CALDN 05 U14 044.15 DSQ - 22
999 81084 49 VOGEL Eva DEVGL 05 U14 038.08 DSQ - 22
999 88379 58 TRIPP Kate MSFLD 05 U14 046.02 DSQ - 9
05/02/2017 / Devil's Glen / REC17.5037